»·PEaware :: N76450 KSMX-KBFL

N76450 :: KSMX-KBFL

FLIGHT INFORMATION

Flight Status: Arrived
Operator: Privately registered:
United States
More flights under this callsign
Pilot: Craig B. (17752)
Aircraft: CESSNA 172 SKYHAWK
(C172)
More flights by this aircraft type
Origin: KSMX Santa Maria Pub/Capt Hancock
United States
Destination: KBFL Meadows
United States
More flights between these airports :: More routes between these airports
Route: +
File this flight plan on PilotEdge
Remarks: cat5
Altitude:
(Current/Filed)
0ft
Speed:
(Current/Filed)
0kts
Departed: 10-Jan-18 10:25 AM
Arrived: 10-Jan-18 11:15 AM
Distance/Time
Traveled:
76nm/0:50
Distance/Time
To Go:
Arrived

Flight Plot

Page will automatically refresh every two minutes.


Map Options




Map Legend


Flown Route
Filed Route
Departure Airport
Arrival Airport
Navaid (VOR, NDB)
Fix

Horizontal Profiles

Position Reports

Time Latitude Longitude Heading Altitude Ground
Speed
10-Jan-18 10:27 34.894058 -120.443660 11 264ft 0kts
10-Jan-18 10:28 34.893500 -120.443952 265 264ft 9kts
10-Jan-18 10:29 34.893364 -120.445362 213 264ft 0kts
10-Jan-18 10:30 34.893798 -120.447010 312 264ft 35kts
10-Jan-18 10:31 34.909161 -120.465202 315 702ft 85kts
10-Jan-18 10:32 34.928100 -120.483062 355 1461ft 91kts
10-Jan-18 10:33 34.944015 -120.461852 59 2187ft 89kts
10-Jan-18 10:34 34.954449 -120.440117 59 2747ft 90kts
10-Jan-18 10:35 34.968516 -120.408619 62 3478ft 90kts
10-Jan-18 10:36 34.978122 -120.385642 62 3999ft 91kts
10-Jan-18 10:37 34.989650 -120.357639 63 4582ft 92kts
10-Jan-18 10:38 35.001225 -120.329385 63 5107ft 93kts
10-Jan-18 10:39 35.014867 -120.296035 63 5657ft 94kts
10-Jan-18 10:40 35.024674 -120.272059 63 6011ft 95kts
10-Jan-18 10:41 35.036515 -120.243104 63 6399ft 95kts
10-Jan-18 10:42 35.048478 -120.213847 63 6770ft 96kts
10-Jan-18 10:43 35.060461 -120.184537 63 7120ft 97kts
10-Jan-18 10:44 35.072538 -120.154992 63 7420ft 100kts
10-Jan-18 10:45 35.085762 -120.122636 63 7421ft 107kts
10-Jan-18 10:46 35.099105 -120.089982 63 7347ft 106kts
10-Jan-18 10:47 35.112553 -120.057070 63 7236ft 108kts
10-Jan-18 10:48 35.125877 -120.024454 63 7189ft 105kts
10-Jan-18 10:49 35.139040 -119.992224 63 7152ft 104kts
10-Jan-18 10:50 35.151987 -119.960521 63 7200ft 102kts
10-Jan-18 10:51 35.164842 -119.929039 63 7323ft 104kts
10-Jan-18 10:52 35.177980 -119.896856 63 7358ft 108kts
10-Jan-18 10:53 35.191639 -119.863393 63 7267ft 107kts
10-Jan-18 10:54 35.204947 -119.830783 63 7209ft 106kts
10-Jan-18 10:55 35.218046 -119.798681 63 7227ft 104kts
10-Jan-18 10:56 35.230938 -119.767081 63 7272ft 104kts
10-Jan-18 10:57 35.243892 -119.735326 63 7313ft 104kts
10-Jan-18 10:58 35.256966 -119.703270 63 7291ft 107kts
10-Jan-18 10:59 35.270274 -119.670633 63 7272ft 106kts
10-Jan-18 11:00 35.283608 -119.637930 63 7246ft 107kts
10-Jan-18 11:01 35.296880 -119.605372 63 7224ft 107kts
10-Jan-18 11:02 35.310184 -119.572730 63 7227ft 105kts
10-Jan-18 11:03 35.323275 -119.540606 63 7232ft 105kts
10-Jan-18 11:04 35.336376 -119.508453 63 7243ft 105kts
10-Jan-18 11:05 35.349457 -119.476341 63 7038ft 107kts
10-Jan-18 11:06 35.360247 -119.442985 69 6412ft 104kts
10-Jan-18 11:07 35.369960 -119.409388 70 5697ft 103kts
10-Jan-18 11:08 35.379492 -119.376199 70 5047ft 102kts
10-Jan-18 11:09 35.388919 -119.343359 70 4454ft 101kts
10-Jan-18 11:10 35.398294 -119.310694 70 3899ft 101kts
10-Jan-18 11:11 35.407563 -119.278398 70 3382ft 100kts
10-Jan-18 11:12 35.416794 -119.246228 70 2896ft 99kts
10-Jan-18 11:13 35.425925 -119.214403 70 2444ft 98kts
10-Jan-18 11:14 35.434995 -119.182790 70 2022ft 98kts
10-Jan-18 11:15 35.444035 -119.151276 70 1626ft 97kts
10-Jan-18 11:16 35.452806 -119.119955 78 1253ft 97kts
10-Jan-18 11:17 35.442424 -119.094616 135 1338ft 88kts
10-Jan-18 11:18 35.425051 -119.074323 136 1340ft 86kts
10-Jan-18 11:19 35.410601 -119.054042 101 906ft 82kts
10-Jan-18 11:20 35.423840 -119.044233 317 572ft 70kts
10-Jan-18 11:21 35.435016 -119.057650 343 510ft 12kts
10-Jan-18 11:22 35.436191 -119.057917 51 510ft 0kts
10-Jan-18 11:23 35.436192 -119.057915 51 510ft 0kts
10-Jan-18 11:24 35.436158 -119.056584 136 510ft 13kts
10-Jan-18 11:25 35.432538 -119.052149 137 510ft 19kts
10-Jan-18 11:26 35.429724 -119.047701 45 510ft 10kts
10-Jan-18 11:27 35.430493 -119.046709 46 510ft 0kts
10-Jan-18 11:28 35.430493 -119.046708 46 510ft 0kts

Navigation Log

Ident Type
1. KSMX Airport
2. KBFL Airport